sensor_id;sensor_type;location;lat;lon;timestamp;P1;durP1;ratioP1;P2;durP2;ratioP2
34982;SDS011;21187;50.976;13.720;2024-03-17T00:00:32;5.57;;;1.60;;
34982;SDS011;21187;50.976;13.720;2024-03-17T00:05:33;2.75;;;1.90;;
34982;SDS011;21187;50.976;13.720;2024-03-17T00:10:34;10.07;;;2.03;;
34982;SDS011;21187;50.976;13.720;2024-03-17T00:15:35;8.48;;;1.83;;
34982;SDS011;21187;50.976;13.720;2024-03-17T00:20:36;7.38;;;1.85;;
34982;SDS011;21187;50.976;13.720;2024-03-17T00:25:38;3.80;;;1.85;;
34982;SDS011;21187;50.976;13.720;2024-03-17T00:30:40;6.88;;;2.45;;
34982;SDS011;21187;50.976;13.720;2024-03-17T00:35:41;9.40;;;2.35;;
34982;SDS011;21187;50.976;13.720;2024-03-17T00:40:42;8.40;;;2.10;;
34982;SDS011;21187;50.976;13.720;2024-03-17T00:45:51;7.40;;;2.55;;
34982;SDS011;21187;50.976;13.720;2024-03-17T00:50:55;4.95;;;2.00;;
34982;SDS011;21187;50.976;13.720;2024-03-17T00:55:57;4.10;;;2.10;;
34982;SDS011;21187;50.976;13.720;2024-03-17T01:01:01;4.05;;;2.00;;
34982;SDS011;21187;50.976;13.720;2024-03-17T01:06:03;21.38;;;2.45;;
34982;SDS011;21187;50.976;13.720;2024-03-17T01:11:04;5.20;;;1.75;;
34982;SDS011;21187;50.976;13.720;2024-03-17T01:16:08;7.05;;;2.13;;
34982;SDS011;21187;50.976;13.720;2024-03-17T01:21:09;4.25;;;2.20;;
34982;SDS011;21187;50.976;13.720;2024-03-17T01:26:10;12.60;;;2.50;;
34982;SDS011;21187;50.976;13.720;2024-03-17T01:31:11;12.38;;;2.78;;
34982;SDS011;21187;50.976;13.720;2024-03-17T01:36:12;9.75;;;2.45;;
34982;SDS011;21187;50.976;13.720;2024-03-17T01:41:13;4.20;;;1.70;;
34982;SDS011;21187;50.976;13.720;2024-03-17T01:46:15;4.70;;;1.85;;
34982;SDS011;21187;50.976;13.720;2024-03-17T01:51:17;9.25;;;2.20;;
34982;SDS011;21187;50.976;13.720;2024-03-17T01:56:19;10.32;;;2.42;;
34982;SDS011;21187;50.976;13.720;2024-03-17T02:01:20;11.35;;;2.35;;
34982;SDS011;21187;50.976;13.720;2024-03-17T02:06:21;10.43;;;2.58;;
34982;SDS011;21187;50.976;13.720;2024-03-17T02:11:24;9.55;;;2.70;;
34982;SDS011;21187;50.976;13.720;2024-03-17T02:16:26;4.15;;;1.90;;
34982;SDS011;21187;50.976;13.720;2024-03-17T02:21:27;7.78;;;2.03;;
34982;SDS011;21187;50.976;13.720;2024-03-17T02:26:28;5.57;;;2.20;;
34982;SDS011;21187;50.976;13.720;2024-03-17T02:31:29;5.25;;;2.15;;
34982;SDS011;21187;50.976;13.720;2024-03-17T02:36:30;7.65;;;1.90;;
34982;SDS011;21187;50.976;13.720;2024-03-17T02:41:31;13.13;;;2.28;;
34982;SDS011;21187;50.976;13.720;2024-03-17T02:46:31;8.15;;;2.45;;
34982;SDS011;21187;50.976;13.720;2024-03-17T02:51:34;6.45;;;2.15;;
34982;SDS011;21187;50.976;13.720;2024-03-17T02:56:35;7.38;;;2.63;;
34982;SDS011;21187;50.976;13.720;2024-03-17T03:01:36;8.57;;;2.40;;
34982;SDS011;21187;50.976;13.720;2024-03-17T03:06:37;7.18;;;2.40;;
34982;SDS011;21187;50.976;13.720;2024-03-17T03:11:38;11.13;;;2.78;;
34982;SDS011;21187;50.976;13.720;2024-03-17T03:16:40;6.97;;;2.45;;
34982;SDS011;21187;50.976;13.720;2024-03-17T03:21:41;5.85;;;2.20;;
34982;SDS011;21187;50.976;13.720;2024-03-17T03:26:41;10.10;;;2.63;;
34982;SDS011;21187;50.976;13.720;2024-03-17T03:31:42;6.22;;;2.10;;
34982;SDS011;21187;50.976;13.720;2024-03-17T03:36:43;10.48;;;2.40;;
34982;SDS011;21187;50.976;13.720;2024-03-17T03:41:44;5.45;;;2.53;;
34982;SDS011;21187;50.976;13.720;2024-03-17T03:46:44;5.32;;;2.38;;
34982;SDS011;21187;50.976;13.720;2024-03-17T03:51:47;5.68;;;3.00;;
34982;SDS011;21187;50.976;13.720;2024-03-17T03:56:47;7.70;;;2.53;;
34982;SDS011;21187;50.976;13.720;2024-03-17T04:01:48;4.57;;;2.08;;
34982;SDS011;21187;50.976;13.720;2024-03-17T04:06:49;6.72;;;2.22;;
34982;SDS011;21187;50.976;13.720;2024-03-17T04:11:50;12.85;;;2.50;;
34982;SDS011;21187;50.976;13.720;2024-03-17T04:16:51;5.40;;;2.25;;
34982;SDS011;21187;50.976;13.720;2024-03-17T04:21:54;7.97;;;2.28;;
34982;SDS011;21187;50.976;13.720;2024-03-17T04:26:55;8.85;;;2.53;;
34982;SDS011;21187;50.976;13.720;2024-03-17T04:31:56;8.70;;;2.17;;
34982;SDS011;21187;50.976;13.720;2024-03-17T04:36:57;17.60;;;2.45;;
34982;SDS011;21187;50.976;13.720;2024-03-17T04:41:58;16.13;;;2.55;;
34982;SDS011;21187;50.976;13.720;2024-03-17T04:47:00;8.20;;;2.75;;
34982;SDS011;21187;50.976;13.720;2024-03-17T04:52:01;7.65;;;2.45;;
34982;SDS011;21187;50.976;13.720;2024-03-17T04:57:02;9.10;;;2.80;;
34982;SDS011;21187;50.976;13.720;2024-03-17T05:02:04;7.03;;;2.75;;
34982;SDS011;21187;50.976;13.720;2024-03-17T05:07:06;8.23;;;2.28;;
34982;SDS011;21187;50.976;13.720;2024-03-17T05:12:06;5.43;;;2.45;;
34982;SDS011;21187;50.976;13.720;2024-03-17T05:17:07;3.58;;;2.20;;
34982;SDS011;21187;50.976;13.720;2024-03-17T05:22:08;5.68;;;2.60;;
34982;SDS011;21187;50.976;13.720;2024-03-17T05:27:09;9.02;;;2.78;;
34982;SDS011;21187;50.976;13.720;2024-03-17T05:32:09;7.18;;;2.50;;
34982;SDS011;21187;50.976;13.720;2024-03-17T05:37:10;15.10;;;3.33;;
34982;SDS011;21187;50.976;13.720;2024-03-17T05:42:11;8.48;;;2.60;;
34982;SDS011;21187;50.976;13.720;2024-03-17T05:47:12;9.65;;;2.80;;
34982;SDS011;21187;50.976;13.720;2024-03-17T05:52:13;15.48;;;2.75;;
34982;SDS011;21187;50.976;13.720;2024-03-17T05:57:14;9.32;;;2.78;;
34982;SDS011;21187;50.976;13.720;2024-03-17T06:02:16;6.85;;;2.25;;
34982;SDS011;21187;50.976;13.720;2024-03-17T06:07:19;10.32;;;3.03;;
34982;SDS011;21187;50.976;13.720;2024-03-17T06:12:19;13.43;;;2.70;;
34982;SDS011;21187;50.976;13.720;2024-03-17T06:17:20;12.00;;;2.80;;
34982;SDS011;21187;50.976;13.720;2024-03-17T06:22:21;7.43;;;2.78;;
34982;SDS011;21187;50.976;13.720;2024-03-17T06:27:23;5.93;;;2.55;;
34982;SDS011;21187;50.976;13.720;2024-03-17T06:32:24;6.18;;;3.20;;
34982;SDS011;21187;50.976;13.720;2024-03-17T06:37:25;11.38;;;2.75;;
34982;SDS011;21187;50.976;13.720;2024-03-17T06:42:26;11.27;;;2.70;;
34982;SDS011;21187;50.976;13.720;2024-03-17T06:47:26;9.18;;;2.85;;
34982;SDS011;21187;50.976;13.720;2024-03-17T06:52:27;6.88;;;2.83;;
34982;SDS011;21187;50.976;13.720;2024-03-17T06:57:28;7.18;;;2.38;;
34982;SDS011;21187;50.976;13.720;2024-03-17T07:02:29;8.07;;;2.50;;
34982;SDS011;21187;50.976;13.720;2024-03-17T07:07:29;11.57;;;2.53;;
34982;SDS011;21187;50.976;13.720;2024-03-17T07:12:30;11.93;;;2.17;;
34982;SDS011;21187;50.976;13.720;2024-03-17T07:17:31;13.48;;;2.67;;
34982;SDS011;21187;50.976;13.720;2024-03-17T07:22:32;14.13;;;3.92;;
34982;SDS011;21187;50.976;13.720;2024-03-17T07:27:33;11.13;;;2.28;;
34982;SDS011;21187;50.976;13.720;2024-03-17T07:32:34;12.15;;;2.53;;
34982;SDS011;21187;50.976;13.720;2024-03-17T07:37:35;11.77;;;2.28;;
34982;SDS011;21187;50.976;13.720;2024-03-17T07:42:36;17.23;;;2.78;;
34982;SDS011;21187;50.976;13.720;2024-03-17T07:47:37;12.82;;;2.22;;
34982;SDS011;21187;50.976;13.720;2024-03-17T07:52:38;12.45;;;2.65;;
34982;SDS011;21187;50.976;13.720;2024-03-17T07:57:38;11.05;;;2.08;;
34982;SDS011;21187;50.976;13.720;2024-03-17T08:02:40;15.10;;;2.03;;
34982;SDS011;21187;50.976;13.720;2024-03-17T08:07:40;19.73;;;4.00;;
34982;SDS011;21187;50.976;13.720;2024-03-17T08:12:45;7.85;;;1.83;;
34982;SDS011;21187;50.976;13.720;2024-03-17T08:17:46;15.90;;;3.03;;
34982;SDS011;21187;50.976;13.720;2024-03-17T08:22:47;13.10;;;2.33;;
34982;SDS011;21187;50.976;13.720;2024-03-17T08:27:47;12.15;;;2.42;;
34982;SDS011;21187;50.976;13.720;2024-03-17T08:32:48;8.48;;;2.00;;
34982;SDS011;21187;50.976;13.720;2024-03-17T08:37:49;6.38;;;2.33;;
34982;SDS011;21187;50.976;13.720;2024-03-17T08:42:51;15.23;;;1.90;;
34982;SDS011;21187;50.976;13.720;2024-03-17T08:47:52;11.50;;;2.20;;
34982;SDS011;21187;50.976;13.720;2024-03-17T08:52:53;6.88;;;1.80;;
34982;SDS011;21187;50.976;13.720;2024-03-17T08:57:54;9.90;;;1.58;;
34982;SDS011;21187;50.976;13.720;2024-03-17T09:02:54;9.85;;;2.17;;
34982;SDS011;21187;50.976;13.720;2024-03-17T09:07:55;7.70;;;1.60;;
34982;SDS011;21187;50.976;13.720;2024-03-17T09:12:56;11.20;;;2.13;;
34982;SDS011;21187;50.976;13.720;2024-03-17T09:17:57;10.35;;;1.58;;
34982;SDS011;21187;50.976;13.720;2024-03-17T09:22:57;9.25;;;1.65;;
34982;SDS011;21187;50.976;13.720;2024-03-17T09:27:59;8.50;;;1.52;;
34982;SDS011;21187;50.976;13.720;2024-03-17T09:32:59;4.43;;;1.52;;
34982;SDS011;21187;50.976;13.720;2024-03-17T09:38:00;5.15;;;1.13;;
34982;SDS011;21187;50.976;13.720;2024-03-17T09:43:01;6.10;;;2.10;;
34982;SDS011;21187;50.976;13.720;2024-03-17T09:48:02;8.23;;;1.77;;
34982;SDS011;21187;50.976;13.720;2024-03-17T09:53:03;14.65;;;1.77;;
34982;SDS011;21187;50.976;13.720;2024-03-17T09:58:07;10.48;;;1.60;;
34982;SDS011;21187;50.976;13.720;2024-03-17T10:08:39;7.88;;;1.80;;
34982;SDS011;21187;50.976;13.720;2024-03-17T10:13:44;13.93;;;2.45;;
34982;SDS011;21187;50.976;13.720;2024-03-17T10:18:45;10.57;;;2.58;;
34982;SDS011;21187;50.976;13.720;2024-03-17T10:23:45;8.45;;;2.97;;
34982;SDS011;21187;50.976;13.720;2024-03-17T10:28:46;7.68;;;1.90;;
34982;SDS011;21187;50.976;13.720;2024-03-17T10:34:00;10.15;;;1.90;;
34982;SDS011;21187;50.976;13.720;2024-03-17T10:39:02;13.32;;;1.77;;
34982;SDS011;21187;50.976;13.720;2024-03-17T10:44:02;7.13;;;2.22;;
34982;SDS011;21187;50.976;13.720;2024-03-17T10:49:04;4.93;;;2.25;;
34982;SDS011;21187;50.976;13.720;2024-03-17T10:54:11;12.35;;;1.92;;
34982;SDS011;21187;50.976;13.720;2024-03-17T10:59:38;10.05;;;2.13;;
34982;SDS011;21187;50.976;13.720;2024-03-17T11:04:42;11.90;;;2.95;;
34982;SDS011;21187;50.976;13.720;2024-03-17T11:09:43;10.52;;;2.22;;
34982;SDS011;21187;50.976;13.720;2024-03-17T11:14:45;4.25;;;2.03;;
34982;SDS011;21187;50.976;13.720;2024-03-17T11:19:52;7.60;;;2.30;;
34982;SDS011;21187;50.976;13.720;2024-03-17T11:35:41;7.32;;;2.40;;
34982;SDS011;21187;50.976;13.720;2024-03-17T11:40:42;10.80;;;2.90;;
34982;SDS011;21187;50.976;13.720;2024-03-17T11:45:43;7.75;;;3.05;;
34982;SDS011;21187;50.976;13.720;2024-03-17T11:50:44;8.80;;;2.33;;
34982;SDS011;21187;50.976;13.720;2024-03-17T11:55:48;6.93;;;2.40;;
34982;SDS011;21187;50.976;13.720;2024-03-17T12:00:53;6.93;;;2.45;;
34982;SDS011;21187;50.976;13.720;2024-03-17T12:05:54;7.85;;;2.90;;
34982;SDS011;21187;50.976;13.720;2024-03-17T12:10:55;9.07;;;2.90;;
34982;SDS011;21187;50.976;13.720;2024-03-17T12:16:12;6.32;;;2.50;;
34982;SDS011;21187;50.976;13.720;2024-03-17T12:21:13;5.55;;;2.53;;
34982;SDS011;21187;50.976;13.720;2024-03-17T12:26:15;8.45;;;3.17;;
34982;SDS011;21187;50.976;13.720;2024-03-17T12:31:16;6.32;;;2.88;;
34982;SDS011;21187;50.976;13.720;2024-03-17T12:36:17;14.52;;;3.35;;
34982;SDS011;21187;50.976;13.720;2024-03-17T12:41:18;8.63;;;2.80;;
34982;SDS011;21187;50.976;13.720;2024-03-17T12:46:22;5.13;;;3.10;;
34982;SDS011;21187;50.976;13.720;2024-03-17T12:51:23;5.40;;;2.78;;
34982;SDS011;21187;50.976;13.720;2024-03-17T12:56:24;8.48;;;2.40;;
34982;SDS011;21187;50.976;13.720;2024-03-17T13:01:43;6.60;;;2.90;;
34982;SDS011;21187;50.976;13.720;2024-03-17T13:06:44;8.10;;;2.35;;
34982;SDS011;21187;50.976;13.720;2024-03-17T13:11:45;4.47;;;2.30;;
34982;SDS011;21187;50.976;13.720;2024-03-17T13:16:48;9.75;;;2.65;;
34982;SDS011;21187;50.976;13.720;2024-03-17T13:21:49;9.07;;;2.75;;
34982;SDS011;21187;50.976;13.720;2024-03-17T13:26:50;6.85;;;2.40;;
34982;SDS011;21187;50.976;13.720;2024-03-17T13:31:51;16.05;;;3.03;;
34982;SDS011;21187;50.976;13.720;2024-03-17T13:36:55;8.18;;;2.90;;
34982;SDS011;21187;50.976;13.720;2024-03-17T13:41:56;12.48;;;2.40;;
34982;SDS011;21187;50.976;13.720;2024-03-17T13:47:02;11.23;;;2.40;;
34982;SDS011;21187;50.976;13.720;2024-03-17T13:52:03;7.47;;;2.80;;
34982;SDS011;21187;50.976;13.720;2024-03-17T13:57:05;7.32;;;3.33;;
34982;SDS011;21187;50.976;13.720;2024-03-17T14:02:06;7.13;;;3.38;;
34982;SDS011;21187;50.976;13.720;2024-03-17T14:07:12;8.27;;;3.60;;
34982;SDS011;21187;50.976;13.720;2024-03-17T14:12:13;10.00;;;3.42;;
34982;SDS011;21187;50.976;13.720;2024-03-17T14:17:15;9.85;;;2.63;;
34982;SDS011;21187;50.976;13.720;2024-03-17T14:22:18;8.88;;;3.25;;
34982;SDS011;21187;50.976;13.720;2024-03-17T14:27:19;9.90;;;3.22;;
34982;SDS011;21187;50.976;13.720;2024-03-17T14:32:21;8.88;;;3.30;;
34982;SDS011;21187;50.976;13.720;2024-03-17T14:37:22;9.82;;;3.13;;
34982;SDS011;21187;50.976;13.720;2024-03-17T14:42:23;10.90;;;2.92;;
34982;SDS011;21187;50.976;13.720;2024-03-17T14:47:25;11.27;;;2.92;;
34982;SDS011;21187;50.976;13.720;2024-03-17T14:52:25;4.60;;;2.83;;
34982;SDS011;21187;50.976;13.720;2024-03-17T14:57:27;8.07;;;2.60;;
34982;SDS011;21187;50.976;13.720;2024-03-17T15:02:28;6.20;;;2.83;;
34982;SDS011;21187;50.976;13.720;2024-03-17T15:07:29;7.57;;;2.67;;
34982;SDS011;21187;50.976;13.720;2024-03-17T15:12:30;9.35;;;2.85;;
34982;SDS011;21187;50.976;13.720;2024-03-17T15:17:31;10.30;;;3.38;;
34982;SDS011;21187;50.976;13.720;2024-03-17T15:22:33;11.32;;;3.10;;
34982;SDS011;21187;50.976;13.720;2024-03-17T15:27:34;7.40;;;3.00;;
34982;SDS011;21187;50.976;13.720;2024-03-17T15:32:35;11.73;;;2.78;;
34982;SDS011;21187;50.976;13.720;2024-03-17T15:37:36;10.43;;;3.28;;
34982;SDS011;21187;50.976;13.720;2024-03-17T15:42:37;7.72;;;3.00;;
34982;SDS011;21187;50.976;13.720;2024-03-17T15:47:38;7.78;;;2.67;;
34982;SDS011;21187;50.976;13.720;2024-03-17T15:52:42;5.82;;;2.70;;
34982;SDS011;21187;50.976;13.720;2024-03-17T15:57:44;12.25;;;2.80;;
34982;SDS011;21187;50.976;13.720;2024-03-17T16:02:47;16.90;;;3.00;;
34982;SDS011;21187;50.976;13.720;2024-03-17T16:07:47;8.43;;;3.03;;
34982;SDS011;21187;50.976;13.720;2024-03-17T16:12:49;8.23;;;3.00;;
34982;SDS011;21187;50.976;13.720;2024-03-17T16:17:51;10.57;;;3.03;;
34982;SDS011;21187;50.976;13.720;2024-03-17T16:22:52;14.50;;;3.45;;
34982;SDS011;21187;50.976;13.720;2024-03-17T16:27:55;7.43;;;3.15;;
34982;SDS011;21187;50.976;13.720;2024-03-17T16:32:57;11.13;;;2.78;;
34982;SDS011;21187;50.976;13.720;2024-03-17T16:37:57;23.73;;;6.40;;
34982;SDS011;21187;50.976;13.720;2024-03-17T16:43:02;13.90;;;3.10;;
34982;SDS011;21187;50.976;13.720;2024-03-17T16:48:04;11.60;;;2.88;;
34982;SDS011;21187;50.976;13.720;2024-03-17T16:53:06;11.35;;;3.20;;
34982;SDS011;21187;50.976;13.720;2024-03-17T16:58:07;11.07;;;3.22;;
34982;SDS011;21187;50.976;13.720;2024-03-17T17:03:08;13.52;;;4.03;;
34982;SDS011;21187;50.976;13.720;2024-03-17T17:08:08;12.52;;;3.47;;
34982;SDS011;21187;50.976;13.720;2024-03-17T17:13:09;10.30;;;3.40;;
34982;SDS011;21187;50.976;13.720;2024-03-17T17:18:45;12.15;;;4.00;;
34982;SDS011;21187;50.976;13.720;2024-03-17T17:24:07;9.50;;;3.70;;
34982;SDS011;21187;50.976;13.720;2024-03-17T17:29:15;14.30;;;4.45;;
34982;SDS011;21187;50.976;13.720;2024-03-17T17:34:16;14.18;;;5.60;;
34982;SDS011;21187;50.976;13.720;2024-03-17T17:39:17;14.95;;;4.90;;
34982;SDS011;21187;50.976;13.720;2024-03-17T17:44:20;11.98;;;5.15;;
34982;SDS011;21187;50.976;13.720;2024-03-17T17:49:21;16.25;;;6.13;;
34982;SDS011;21187;50.976;13.720;2024-03-17T17:54:22;43.03;;;14.00;;
34982;SDS011;21187;50.976;13.720;2024-03-17T17:59:24;13.90;;;4.95;;
34982;SDS011;21187;50.976;13.720;2024-03-17T18:04:25;33.08;;;10.07;;
34982;SDS011;21187;50.976;13.720;2024-03-17T18:09:26;56.45;;;15.10;;
34982;SDS011;21187;50.976;13.720;2024-03-17T18:14:29;19.60;;;6.45;;
34982;SDS011;21187;50.976;13.720;2024-03-17T18:19:30;19.13;;;5.72;;
34982;SDS011;21187;50.976;13.720;2024-03-17T18:24:31;11.23;;;4.75;;
34982;SDS011;21187;50.976;13.720;2024-03-17T18:29:32;12.93;;;4.75;;
34982;SDS011;21187;50.976;13.720;2024-03-17T18:34:32;11.95;;;3.90;;
34982;SDS011;21187;50.976;13.720;2024-03-17T18:39:33;27.52;;;10.27;;
34982;SDS011;21187;50.976;13.720;2024-03-17T18:44:34;14.93;;;6.40;;
34982;SDS011;21187;50.976;13.720;2024-03-17T18:49:36;11.68;;;4.88;;
34982;SDS011;21187;50.976;13.720;2024-03-17T18:54:37;14.07;;;4.53;;
34982;SDS011;21187;50.976;13.720;2024-03-17T18:59:38;12.75;;;4.85;;
34982;SDS011;21187;50.976;13.720;2024-03-17T19:04:40;19.95;;;5.63;;
34982;SDS011;21187;50.976;13.720;2024-03-17T19:09:41;14.13;;;4.45;;
34982;SDS011;21187;50.976;13.720;2024-03-17T19:14:42;12.63;;;5.35;;
34982;SDS011;21187;50.976;13.720;2024-03-17T19:19:43;16.35;;;5.85;;
34982;SDS011;21187;50.976;13.720;2024-03-17T19:24:43;17.02;;;6.13;;
34982;SDS011;21187;50.976;13.720;2024-03-17T19:29:44;14.80;;;5.60;;
34982;SDS011;21187;50.976;13.720;2024-03-17T19:34:45;15.93;;;5.70;;
34982;SDS011;21187;50.976;13.720;2024-03-17T19:39:48;18.98;;;5.45;;
34982;SDS011;21187;50.976;13.720;2024-03-17T19:44:49;9.73;;;5.10;;
34982;SDS011;21187;50.976;13.720;2024-03-17T19:49:50;16.30;;;5.20;;
34982;SDS011;21187;50.976;13.720;2024-03-17T19:54:51;20.17;;;5.63;;
34982;SDS011;21187;50.976;13.720;2024-03-17T19:59:54;12.65;;;5.32;;
34982;SDS011;21187;50.976;13.720;2024-03-17T20:04:54;11.57;;;4.68;;
34982;SDS011;21187;50.976;13.720;2024-03-17T20:09:55;10.77;;;5.00;;
34982;SDS011;21187;50.976;13.720;2024-03-17T20:14:56;15.07;;;4.13;;
34982;SDS011;21187;50.976;13.720;2024-03-17T20:19:57;16.25;;;4.18;;
34982;SDS011;21187;50.976;13.720;2024-03-17T20:24:57;11.27;;;3.80;;
34982;SDS011;21187;50.976;13.720;2024-03-17T20:30:03;10.55;;;4.10;;
34982;SDS011;21187;50.976;13.720;2024-03-17T20:35:05;10.45;;;3.35;;
34982;SDS011;21187;50.976;13.720;2024-03-17T20:40:07;12.05;;;4.40;;
34982;SDS011;21187;50.976;13.720;2024-03-17T20:45:10;20.13;;;4.70;;
34982;SDS011;21187;50.976;13.720;2024-03-17T20:50:15;13.75;;;4.78;;
34982;SDS011;21187;50.976;13.720;2024-03-17T20:55:18;16.92;;;5.07;;
34982;SDS011;21187;50.976;13.720;2024-03-17T21:00:19;16.73;;;4.65;;
34982;SDS011;21187;50.976;13.720;2024-03-17T21:05:25;10.60;;;4.30;;
34982;SDS011;21187;50.976;13.720;2024-03-17T21:10:29;8.57;;;3.75;;
34982;SDS011;21187;50.976;13.720;2024-03-17T21:15:30;18.55;;;3.88;;
34982;SDS011;21187;50.976;13.720;2024-03-17T21:20:31;14.70;;;3.70;;
34982;SDS011;21187;50.976;13.720;2024-03-17T21:25:31;11.52;;;3.30;;
34982;SDS011;21187;50.976;13.720;2024-03-17T21:30:32;12.55;;;2.75;;
34982;SDS011;21187;50.976;13.720;2024-03-17T21:35:33;11.02;;;2.83;;
34982;SDS011;21187;50.976;13.720;2024-03-17T21:40:34;10.23;;;3.13;;
34982;SDS011;21187;50.976;13.720;2024-03-17T21:45:35;9.75;;;2.90;;
34982;SDS011;21187;50.976;13.720;2024-03-17T21:50:36;17.13;;;3.50;;
34982;SDS011;21187;50.976;13.720;2024-03-17T21:55:37;13.27;;;3.80;;
34982;SDS011;21187;50.976;13.720;2024-03-17T22:00:38;10.07;;;4.10;;
34982;SDS011;21187;50.976;13.720;2024-03-17T22:05:47;16.70;;;3.63;;
34982;SDS011;21187;50.976;13.720;2024-03-17T22:10:54;13.73;;;3.72;;
34982;SDS011;21187;50.976;13.720;2024-03-17T22:15:55;24.40;;;3.53;;
34982;SDS011;21187;50.976;13.720;2024-03-17T22:21:01;9.13;;;3.47;;
34982;SDS011;21187;50.976;13.720;2024-03-17T22:26:04;9.38;;;2.75;;
34982;SDS011;21187;50.976;13.720;2024-03-17T22:31:06;8.65;;;2.83;;
34982;SDS011;21187;50.976;13.720;2024-03-17T22:36:06;10.85;;;3.10;;
34982;SDS011;21187;50.976;13.720;2024-03-17T22:41:08;14.02;;;3.00;;
34982;SDS011;21187;50.976;13.720;2024-03-17T22:46:11;12.98;;;3.83;;
34982;SDS011;21187;50.976;13.720;2024-03-17T22:51:13;7.80;;;3.03;;
34982;SDS011;21187;50.976;13.720;2024-03-17T22:56:14;9.00;;;2.80;;
34982;SDS011;21187;50.976;13.720;2024-03-17T23:01:15;12.18;;;3.30;;
34982;SDS011;21187;50.976;13.720;2024-03-17T23:06:16;14.35;;;3.10;;
34982;SDS011;21187;50.976;13.720;2024-03-17T23:11:17;9.23;;;2.30;;
34982;SDS011;21187;50.976;13.720;2024-03-17T23:16:17;8.25;;;2.03;;
34982;SDS011;21187;50.976;13.720;2024-03-17T23:21:19;11.93;;;2.92;;
34982;SDS011;21187;50.976;13.720;2024-03-17T23:26:20;14.80;;;2.95;;
34982;SDS011;21187;50.976;13.720;2024-03-17T23:31:21;4.88;;;2.00;;
34982;SDS011;21187;50.976;13.720;2024-03-17T23:36:21;9.82;;;2.50;;
34982;SDS011;21187;50.976;13.720;2024-03-17T23:41:22;12.68;;;2.70;;
34982;SDS011;21187;50.976;13.720;2024-03-17T23:46:24;9.80;;;2.45;;
34982;SDS011;21187;50.976;13.720;2024-03-17T23:51:24;15.30;;;3.63;;
34982;SDS011;21187;50.976;13.720;2024-03-17T23:56:25;13.98;;;3.25;;
